createdAt,value
2018-09-08T00:01:39.093Z,98798.56
2018-09-08T00:03:51.349Z,98798.40
2018-09-08T00:06:03.571Z,98792.89
2018-09-08T00:08:15.778Z,98803.70
2018-09-08T00:10:28.055Z,98797.56
2018-09-08T00:12:40.324Z,98803.09
2018-09-08T00:14:52.027Z,98801.31
2018-09-08T00:17:10.105Z,98805.50
2018-09-08T00:19:28.034Z,98805.87
2018-09-08T00:21:46.044Z,98803.89
2018-09-08T00:24:03.887Z,98794.56
2018-09-08T00:26:21.850Z,98798.67
2018-09-08T00:28:39.911Z,98797.56
2018-09-08T00:30:52.206Z,98796.64
2018-09-08T00:33:04.423Z,98798.31
2018-09-08T00:35:16.606Z,98807.90
2018-09-08T00:37:28.836Z,98804.70
2018-09-08T00:39:42.208Z,98807.98
2018-09-08T00:41:54.396Z,98807.34
2018-09-08T00:44:06.666Z,98806.92
2018-09-08T00:46:18.911Z,98813.53
2018-09-08T00:48:31.243Z,98809.73
2018-09-08T00:50:43.506Z,98812.34
2018-09-08T00:52:55.751Z,98807.48
2018-09-08T00:55:07.966Z,98810.92
2018-09-08T00:57:20.152Z,98816.14
2018-09-08T00:59:32.411Z,98809.34
2018-09-08T01:01:44.668Z,98812.81
2018-09-08T01:03:56.918Z,98811.56
2018-09-08T01:06:09.112Z,98822.93
2018-09-08T01:08:21.312Z,98823.45
2018-09-08T01:10:33.530Z,98820.82
2018-09-08T01:12:45.749Z,98829.72
2018-09-08T01:14:58.174Z,98821.94
2018-09-08T01:17:10.362Z,98827.44
2018-09-08T01:19:22.589Z,98826.02
2018-09-08T01:21:34.951Z,98823.88
2018-09-08T01:23:51.132Z,98833.66
2018-09-08T01:26:03.583Z,98839.28
2018-09-08T01:28:15.754Z,98842.25
2018-09-08T01:30:27.979Z,98835.13
2018-09-08T01:32:40.248Z,98842.05
2018-09-08T01:34:52.499Z,98837.75
2018-09-08T01:37:04.763Z,98837.02
2018-09-08T01:39:16.997Z,98839.64
2018-09-08T01:41:29.263Z,98841.42
2018-09-08T01:43:41.468Z,98837.78
2018-09-08T01:45:53.677Z,98832.38
2018-09-08T01:48:05.856Z,98839.95
2018-09-08T01:50:18.136Z,98837.25
2018-09-08T01:52:30.351Z,98833.80
2018-09-08T01:54:42.566Z,98832.05
2018-09-08T01:56:54.767Z,98838.77
2018-09-08T01:59:07.045Z,98837.58
2018-09-08T02:01:19.255Z,98842.99
2018-09-08T02:03:32.496Z,98845.23
2018-09-08T02:05:44.711Z,98847.20
2018-09-08T02:07:56.923Z,98854.86
2018-09-08T02:10:09.122Z,98856.36
2018-09-08T02:12:21.351Z,98857.48
2018-09-08T02:14:33.588Z,98848.65
2018-09-08T02:16:45.821Z,98852.28
2018-09-08T02:18:58.081Z,98852.47
2018-09-08T02:21:10.303Z,98852.69
2018-09-08T02:23:22.499Z,98852.47
2018-09-08T02:25:34.860Z,98849.69
2018-09-08T02:27:47.087Z,98855.67
2018-09-08T02:29:59.476Z,98855.97
2018-09-08T02:32:11.713Z,98852.59
2018-09-08T02:34:23.899Z,98857.06
2018-09-08T02:36:36.115Z,98855.58
2018-09-08T02:38:48.305Z,98853.44
2018-09-08T02:41:00.478Z,98851.84
2018-09-08T02:43:12.694Z,98854.27
2018-09-08T02:45:24.896Z,98855.57
2018-09-08T02:47:37.113Z,98857.23
2018-09-08T02:50:00.688Z,98855.02
2018-09-08T02:52:11.823Z,98857.45
2018-09-08T02:54:22.950Z,98856.23
2018-09-08T02:56:34.075Z,98853.44
2018-09-08T02:58:45.239Z,98853.44
2018-09-08T03:00:56.347Z,98854.38
2018-09-08T03:03:07.503Z,98859.59
2018-09-08T03:05:18.688Z,98850.28
2018-09-08T03:07:29.826Z,98860.49
2018-09-08T03:09:43.170Z,98859.40
2018-09-08T03:11:54.325Z,98856.69
2018-09-08T03:14:05.454Z,98857.23
2018-09-08T03:16:16.583Z,98857.70
2018-09-08T03:18:27.762Z,98863.20
2018-09-08T03:20:38.898Z,98866.45
2018-09-08T03:22:50.024Z,98868.55
2018-09-08T03:25:01.194Z,98872.91
2018-09-08T03:27:12.331Z,98875.86
2018-09-08T03:29:23.492Z,98873.63
2018-09-08T03:31:34.630Z,98878.28
2018-09-08T03:33:45.804Z,98873.81
2018-09-08T03:35:56.966Z,98875.36
2018-09-08T03:38:08.095Z,98877.70
2018-09-08T03:40:19.236Z,98875.97
2018-09-08T03:42:30.366Z,98881.63
2018-09-08T03:44:41.521Z,98883.20
2018-09-08T03:46:52.659Z,98884.86
2018-09-08T03:49:03.810Z,98887.64
2018-09-08T03:51:14.956Z,98889.91
2018-09-08T03:53:26.090Z,98888.73
2018-09-08T03:55:37.346Z,98888.91
2018-09-08T03:57:48.477Z,98885.27
2018-09-08T03:59:59.631Z,98887.30
2018-09-08T04:02:10.779Z,98888.23
2018-09-08T04:04:22.989Z,98890.55
2018-09-08T04:06:35.237Z,98889.34
2018-09-08T04:08:47.434Z,98889.58
2018-09-08T04:10:59.676Z,98890.84
2018-09-08T04:13:11.920Z,98888.24
2018-09-08T04:15:24.131Z,98889.01
2018-09-08T04:17:36.339Z,98891.34
2018-09-08T04:19:48.627Z,98891.08
2018-09-08T04:22:00.867Z,98891.31
2018-09-08T04:24:13.095Z,98886.67
2018-09-08T04:26:25.336Z,98892.88
2018-09-08T04:28:37.673Z,98889.44
2018-09-08T04:30:49.891Z,98892.21
2018-09-08T04:33:02.130Z,98889.98
2018-09-08T04:35:14.383Z,98895.31
2018-09-08T04:37:26.599Z,98893.55
2018-09-08T04:39:38.800Z,98896.72
2018-09-08T04:41:51.045Z,98894.22
2018-09-08T04:44:03.338Z,98899.22
2018-09-08T04:46:15.560Z,98895.85
2018-09-08T04:48:27.762Z,98899.19
2018-09-08T04:50:40.229Z,98900.35
2018-09-08T04:52:52.430Z,98900.41
2018-09-08T04:55:04.844Z,98904.11
2018-09-08T04:57:17.089Z,98910.22
2018-09-08T04:59:29.283Z,98906.20
2018-09-08T05:01:41.492Z,98917.75
2018-09-08T05:03:53.728Z,98914.13
2018-09-08T05:06:05.902Z,98914.22
2018-09-08T05:08:18.099Z,98923.17
2018-09-08T05:10:30.463Z,98925.61
2018-09-08T05:12:42.674Z,98921.61
2018-09-08T05:14:54.842Z,98918.64
2018-09-08T05:17:07.087Z,98925.81
2018-09-08T05:19:19.249Z,98925.72
2018-09-08T05:21:31.446Z,98925.35
2018-09-08T05:23:43.647Z,98936.70
2018-09-08T05:25:55.835Z,98935.30
2018-09-08T05:28:08.041Z,98931.27
2018-09-08T05:30:20.270Z,98931.11
2018-09-08T05:32:32.470Z,98936.85
2018-09-08T05:34:44.679Z,98938.36
2018-09-08T05:36:56.914Z,98940.73
2018-09-08T05:39:09.161Z,98940.09
2018-09-08T05:41:21.371Z,98939.38
2018-09-08T05:43:33.607Z,98935.06
2018-09-08T05:45:45.805Z,98938.94
2018-09-08T05:47:58.038Z,98937.83
2018-09-08T05:50:10.267Z,98940.80
2018-09-08T05:52:22.509Z,98943.91
2018-09-08T05:54:34.743Z,98943.27
2018-09-08T05:56:46.996Z,98951.31
2018-09-08T05:58:59.262Z,98945.53
2018-09-08T06:01:11.488Z,98947.33
2018-09-08T06:03:23.717Z,98958.17
2018-09-08T06:05:35.994Z,98951.88
2018-09-08T06:07:48.272Z,98955.22
2018-09-08T06:10:00.529Z,98962.10
2018-09-08T06:12:12.723Z,98955.95
2018-09-08T06:14:25.080Z,98952.94
2018-09-08T06:16:37.307Z,98959.03
2018-09-08T06:18:49.572Z,98955.91
2018-09-08T06:21:01.813Z,98957.08
2018-09-08T06:23:14.113Z,98954.98
2018-09-08T06:25:26.445Z,98952.80
2018-09-08T06:27:38.629Z,98958.76
2018-09-08T06:29:50.858Z,98957.18
2018-09-08T06:32:03.121Z,98960.93
2018-09-08T06:34:15.457Z,98959.63
2018-09-08T06:36:27.712Z,98958.42
2018-09-08T06:38:39.983Z,98956.09
2018-09-08T06:40:52.270Z,98954.24
2018-09-08T06:43:04.722Z,98965.48
2018-09-08T06:45:17.002Z,98959.34
2018-09-08T06:47:29.230Z,98960.77
2018-09-08T06:49:41.498Z,98962.39
2018-09-08T06:51:53.726Z,98963.27
2018-09-08T06:54:05.959Z,98966.59
2018-09-08T06:56:18.184Z,98965.72
2018-09-08T06:58:30.732Z,98962.77
2018-09-08T07:00:43.083Z,98973.02
2018-09-08T07:02:55.307Z,98973.94
2018-09-08T07:05:07.613Z,98978.25
2018-09-08T07:07:19.862Z,98975.98
2018-09-08T07:09:32.123Z,98971.63
2018-09-08T07:11:44.350Z,98971.39
2018-09-08T07:13:56.553Z,98968.20
2018-09-08T07:16:08.883Z,98973.55
2018-09-08T07:18:21.145Z,98974.63
2018-09-08T07:20:33.342Z,98977.98
2018-09-08T07:22:45.650Z,98973.56
2018-09-08T07:24:57.940Z,98974.02
2018-09-08T07:27:10.243Z,98972.72
2018-09-08T07:29:22.457Z,98974.03
2018-09-08T07:31:34.688Z,98975.95
2018-09-08T07:33:46.879Z,98966.48
2018-09-08T07:35:59.080Z,98963.48
2018-09-08T07:38:11.304Z,98963.00
2018-09-08T07:40:23.609Z,98969.92
2018-09-08T07:42:35.844Z,98973.53
2018-09-08T07:44:48.094Z,98975.44
2018-09-08T07:47:00.377Z,98983.39
2018-09-08T07:49:12.620Z,98978.86
2018-09-08T07:51:24.844Z,98984.32
2018-09-08T07:53:37.166Z,98989.45
2018-09-08T07:55:49.343Z,98995.29
2018-09-08T07:58:01.616Z,98988.31
2018-09-08T08:00:13.898Z,98988.36
2018-09-08T08:02:26.177Z,98986.56
2018-09-08T08:04:38.471Z,98987.05
2018-09-08T08:06:50.760Z,98988.80
2018-09-08T08:09:03.822Z,98995.97
2018-09-08T08:11:16.040Z,98990.11
2018-09-08T08:13:28.299Z,98990.41
2018-09-08T08:15:40.512Z,98997.90
2018-09-08T08:17:52.731Z,98995.47
2018-09-08T08:20:05.063Z,98999.95
2018-09-08T08:22:17.359Z,98993.41
2018-09-08T08:24:29.619Z,98994.67
2018-09-08T08:26:41.858Z,98997.80
2018-09-08T08:28:54.109Z,98992.02
2018-09-08T08:31:06.418Z,98992.83
2018-09-08T08:33:18.690Z,98992.48
2018-09-08T08:35:30.919Z,98990.16
2018-09-08T08:37:43.131Z,98983.34
2018-09-08T08:39:55.371Z,98992.21
2018-09-08T08:42:07.591Z,98982.11
2018-09-08T08:44:19.823Z,98987.50
2018-09-08T08:46:32.081Z,98986.48
2018-09-08T08:48:44.315Z,98984.86
2018-09-08T08:51:08.038Z,98990.64
2018-09-08T08:53:31.792Z,98996.17
2018-09-08T08:55:44.038Z,98999.19
2018-09-08T08:57:56.255Z,98995.57
2018-09-08T09:00:08.641Z,98997.00
2018-09-08T09:02:20.901Z,98991.95
2018-09-08T09:04:33.218Z,98991.14
2018-09-08T09:06:45.455Z,98984.15
2018-09-08T09:08:57.701Z,98991.58
2018-09-08T09:11:09.960Z,98979.49
2018-09-08T09:13:22.247Z,98980.33
2018-09-08T09:15:34.823Z,98980.52
2018-09-08T09:17:46.755Z,98976.98
2018-09-08T09:20:10.264Z,98968.17
2018-09-08T09:22:33.902Z,98976.36
2018-09-08T09:24:54.409Z,98974.42
2018-09-08T09:27:06.349Z,98972.11
2018-09-08T09:29:18.947Z,98962.60
2018-09-08T09:31:31.208Z,98959.42
2018-09-08T09:33:43.446Z,98966.03
2018-09-08T09:35:55.691Z,98957.00
2018-09-08T09:38:07.922Z,98958.32
2018-09-08T09:40:21.050Z,98956.36
2018-09-08T09:42:33.255Z,98957.13
2018-09-08T09:44:45.451Z,98950.19
2018-09-08T09:46:57.690Z,98950.52
2018-09-08T09:49:09.972Z,98953.20
2018-09-08T09:51:22.293Z,98948.95
2018-09-08T09:53:34.451Z,98949.69
2018-09-08T09:55:46.734Z,98950.72
2018-09-08T09:57:58.992Z,98950.49
2018-09-08T10:00:16.875Z,98945.66
2018-09-08T10:02:38.580Z,98945.02
2018-09-08T10:04:50.811Z,98938.50
2018-09-08T10:07:07.790Z,98931.06
2018-09-08T10:09:20.037Z,98931.02
2018-09-08T10:11:32.274Z,98933.05
2018-09-08T10:13:44.526Z,98933.10
2018-09-08T10:15:56.734Z,98940.05
2018-09-08T10:18:09.047Z,98940.34
2018-09-08T10:20:22.367Z,98934.88
2018-09-08T10:22:34.618Z,98934.42
2018-09-08T10:24:46.839Z,98932.02
2018-09-08T10:26:59.117Z,98933.47
2018-09-08T10:29:11.362Z,98932.88
2018-09-08T10:31:23.684Z,98927.30
2018-09-08T10:33:35.952Z,98925.18
2018-09-08T10:35:48.180Z,98921.38
2018-09-08T10:38:00.406Z,98915.48
2018-09-08T10:40:13.135Z,98913.63
2018-09-08T10:42:25.307Z,98913.70
2018-09-08T10:44:37.530Z,98920.17
2018-09-08T10:46:49.853Z,98911.53
2018-09-08T10:49:02.059Z,98904.47
2018-09-08T10:52:50.522Z,98904.55
2018-09-08T10:55:02.782Z,98898.25
2018-09-08T10:57:15.023Z,98899.72
2018-09-08T10:59:27.276Z,98890.47
2018-09-08T11:01:39.687Z,98898.92
2018-09-08T11:03:51.832Z,98897.92
2018-09-08T11:06:04.063Z,98898.55
2018-09-08T11:08:16.332Z,98892.76
2018-09-08T11:10:28.529Z,98888.16
2018-09-08T11:12:40.779Z,98898.39
2018-09-08T11:14:52.991Z,98891.59
2018-09-08T11:17:05.227Z,98889.64
2018-09-08T11:19:17.457Z,98893.41
2018-09-08T11:21:29.670Z,98892.51
2018-09-08T11:23:41.932Z,98895.55
2018-09-08T11:25:54.134Z,98895.77
2018-09-08T11:28:06.383Z,98896.27
2018-09-08T11:30:18.590Z,98898.06
2018-09-08T11:32:30.781Z,98896.27
2018-09-08T11:34:43.002Z,98894.88
2018-09-08T11:36:55.226Z,98891.55
2018-09-08T11:39:08.415Z,98887.07
2018-09-08T11:41:20.622Z,98889.42
2018-09-08T11:43:32.844Z,98890.25
2018-09-08T11:45:45.107Z,98889.39
2018-09-08T11:47:57.363Z,98886.91
2018-09-08T11:50:09.590Z,98883.95
2018-09-08T11:52:21.817Z,98885.17
2018-09-08T11:54:34.099Z,98878.41
2018-09-08T11:56:46.327Z,98879.93
2018-09-08T11:58:58.531Z,98877.08
2018-09-08T12:01:10.831Z,98868.61
2018-09-08T12:03:23.107Z,98872.25
2018-09-08T12:05:35.484Z,98863.09
2018-09-08T12:07:47.845Z,98866.60
2018-09-08T12:10:00.056Z,98865.61
2018-09-08T12:12:12.295Z,98855.78
2018-09-08T12:14:24.585Z,98849.98
2018-09-08T12:16:36.944Z,98855.02
2018-09-08T12:18:49.177Z,98848.74
2018-09-08T12:21:01.477Z,98846.59
2018-09-08T12:23:13.694Z,98835.97
2018-09-08T12:25:25.894Z,98838.62
2018-09-08T12:27:38.150Z,98831.00
2018-09-08T12:29:50.332Z,98834.15
2018-09-08T12:32:02.576Z,98835.12
2018-09-08T12:34:14.819Z,98834.23
2018-09-08T12:36:27.043Z,98833.58
2018-09-08T12:38:39.295Z,98825.11
2018-09-08T12:40:51.466Z,98826.73
2018-09-08T12:43:03.726Z,98826.02
2018-09-08T12:45:15.974Z,98821.45
2018-09-08T12:47:28.245Z,98824.48
2018-09-08T12:49:40.543Z,98814.22
2018-09-08T12:51:52.798Z,98819.13
2018-09-08T12:54:05.050Z,98820.97
2018-09-08T12:56:17.307Z,98823.02
2018-09-08T12:58:29.528Z,98816.46
2018-09-08T13:00:41.789Z,98823.25
2018-09-08T13:02:54.067Z,98820.60
2018-09-08T13:05:06.403Z,98815.44
2018-09-08T13:07:18.642Z,98809.84
2018-09-08T13:09:30.912Z,98809.71
2018-09-08T13:11:43.172Z,98810.23
2018-09-08T13:13:55.418Z,98813.55
2018-09-08T13:16:07.656Z,98810.87
2018-09-08T13:18:19.868Z,98808.69
2018-09-08T13:20:32.092Z,98803.09
2018-09-08T13:22:44.366Z,98799.12
2018-09-08T13:24:56.915Z,98802.09
2018-09-08T13:27:09.151Z,98800.91
2018-09-08T13:29:21.402Z,98794.92
2018-09-08T13:31:33.641Z,98796.22
2018-09-08T13:33:45.942Z,98795.23
2018-09-08T13:35:58.102Z,98800.40
2018-09-08T13:38:10.349Z,98801.03
2018-09-08T13:40:22.624Z,98799.84
2018-09-08T13:42:34.854Z,98801.83
2018-09-08T13:44:47.175Z,98807.64
2018-09-08T13:46:59.462Z,98810.33
2018-09-08T13:49:11.607Z,98800.80
2018-09-08T13:51:23.899Z,98797.57
2018-09-08T13:53:36.146Z,98801.93
2018-09-08T13:55:48.386Z,98795.31
2018-09-08T13:58:00.617Z,98789.52
2018-09-08T14:00:12.921Z,98788.14
2018-09-08T14:02:25.183Z,98775.00
2018-09-08T14:04:37.480Z,98770.57
2018-09-08T14:06:49.695Z,98770.09
2018-09-08T14:09:02.031Z,98771.09
2018-09-08T14:11:14.244Z,98765.44
2018-09-08T14:13:26.529Z,98760.43
2018-09-08T14:15:38.746Z,98763.08
2018-09-08T14:17:50.968Z,98761.68
2018-09-08T14:20:03.233Z,98773.55
2018-09-08T14:22:15.447Z,98768.17
2018-09-08T14:24:27.765Z,98773.44
2018-09-08T14:26:40.014Z,98772.13
2018-09-08T14:28:52.203Z,98769.47
2018-09-08T14:31:04.491Z,98766.16
2018-09-08T14:33:16.754Z,98766.83
2018-09-08T14:35:29.021Z,98763.68
2018-09-08T14:37:42.782Z,98762.88
2018-09-08T14:39:55.027Z,98762.52
2018-09-08T14:42:07.279Z,98762.86
2018-09-08T14:44:19.539Z,98761.80
2018-09-08T14:46:31.800Z,98758.94
2018-09-08T14:48:44.014Z,98763.46
2018-09-08T14:50:56.281Z,98763.77
2018-09-08T14:53:08.494Z,98756.81
2018-09-08T14:55:20.764Z,98757.17
2018-09-08T14:57:32.963Z,98756.98
2018-09-08T14:59:45.160Z,98756.81
2018-09-08T15:01:57.398Z,98759.96
2018-09-08T15:04:09.638Z,98758.94
2018-09-08T15:06:21.870Z,98757.25
2018-09-08T15:08:34.127Z,98755.80
2018-09-08T15:10:46.364Z,98750.64
2018-09-08T15:12:58.646Z,98749.81
2018-09-08T15:15:10.937Z,98749.45
2018-09-08T15:17:23.176Z,98746.14
2018-09-08T15:19:35.471Z,98746.83
2018-09-08T15:21:47.686Z,98744.48
2018-09-08T15:23:59.952Z,98738.48
2018-09-08T15:26:12.244Z,98743.30
2018-09-08T15:28:24.545Z,98738.48
2018-09-08T15:30:36.760Z,98739.17
2018-09-08T15:32:49.080Z,98738.17
2018-09-08T15:35:01.279Z,98736.98
2018-09-08T15:37:13.518Z,98735.17
2018-09-08T15:39:25.751Z,98738.45
2018-09-08T15:41:38.008Z,98746.91
2018-09-08T15:43:50.215Z,98739.64
2018-09-08T15:46:02.486Z,98745.89
2018-09-08T15:48:14.663Z,98746.05
2018-09-08T15:50:26.922Z,98748.34
2018-09-08T15:52:39.198Z,98758.06
2018-09-08T15:54:51.535Z,98751.81
2018-09-08T15:57:03.858Z,98752.94
2018-09-08T15:59:16.126Z,98751.92
2018-09-08T16:01:28.413Z,98752.94
2018-09-08T16:03:40.687Z,98745.33
2018-09-08T16:05:52.960Z,98753.57
2018-09-08T16:08:05.663Z,98747.95
2018-09-08T16:10:17.856Z,98750.59
2018-09-08T16:12:30.138Z,98747.81
2018-09-08T16:14:42.379Z,98749.27
2018-09-08T16:16:54.606Z,98746.79
2018-09-08T16:19:06.857Z,98744.94
2018-09-08T16:21:19.157Z,98745.73
2018-09-08T16:23:31.347Z,98756.81
2018-09-08T16:25:43.575Z,98746.36
2018-09-08T16:27:55.877Z,98754.09
2018-09-08T16:30:08.107Z,98753.44
2018-09-08T16:32:20.345Z,98749.44
2018-09-08T16:34:32.699Z,98754.43
2018-09-08T16:36:44.946Z,98749.07
2018-09-08T16:38:57.233Z,98748.08
2018-09-08T16:41:09.452Z,98750.36
2018-09-08T16:43:21.684Z,98746.75
2018-09-08T16:45:33.944Z,98745.33
2018-09-08T16:47:46.194Z,98750.95
2018-09-08T16:49:58.557Z,98747.91
2018-09-08T16:52:10.845Z,98747.23
2018-09-08T16:54:23.091Z,98745.55
2018-09-08T16:56:35.337Z,98752.13
2018-09-08T16:58:47.612Z,98754.08
2018-09-08T17:00:59.838Z,98750.19
2018-09-08T17:03:12.070Z,98758.41
2018-09-08T17:05:24.442Z,98762.83
2018-09-08T17:07:36.663Z,98759.94
2018-09-08T17:09:48.950Z,98754.94
2018-09-08T17:12:01.249Z,98745.60
2018-09-08T17:14:13.556Z,98748.66
2018-09-08T17:16:25.933Z,98751.67
2018-09-08T17:18:38.235Z,98758.41
2018-09-08T17:20:50.486Z,98755.92
2018-09-08T17:23:02.772Z,98757.20
2018-09-08T17:25:15.036Z,98756.50
2018-09-08T17:27:27.272Z,98756.50
2018-09-08T17:29:39.460Z,98757.44
2018-09-08T17:31:51.694Z,98758.34
2018-09-08T17:34:03.937Z,98761.52
2018-09-08T17:36:16.166Z,98763.08
2018-09-08T17:38:28.401Z,98765.48
2018-09-08T17:40:40.673Z,98762.09
2018-09-08T17:42:53.012Z,98768.14
2018-09-08T17:45:05.327Z,98770.36
2018-09-08T17:47:17.553Z,98772.11
2018-09-08T17:49:29.765Z,98774.20
2018-09-08T17:51:42.020Z,98776.11
2018-09-08T17:53:54.250Z,98779.24
2018-09-08T17:56:06.582Z,98779.34
2018-09-08T17:58:18.779Z,98780.23
2018-09-08T18:00:31.110Z,98783.69
2018-09-08T18:02:43.468Z,98784.94
2018-09-08T18:04:55.731Z,98779.36
2018-09-08T18:07:10.304Z,98783.81
2018-09-08T18:09:22.543Z,98780.87
2018-09-08T18:11:34.821Z,98776.16
2018-09-08T18:13:47.077Z,98779.80
2018-09-08T18:15:59.331Z,98785.39
2018-09-08T18:18:11.574Z,98785.86
2018-09-08T18:20:23.799Z,98791.71
2018-09-08T18:22:36.489Z,98794.56
2018-09-08T18:24:48.743Z,98797.09
2018-09-08T18:27:01.008Z,98798.09
2018-09-08T18:29:13.238Z,98802.63
2018-09-08T18:31:25.443Z,98805.17
2018-09-08T18:33:37.678Z,98800.77
2018-09-08T18:35:52.406Z,98806.56
2018-09-08T18:38:04.620Z,98810.31
2018-09-08T18:40:16.856Z,98809.52
2018-09-08T18:42:29.118Z,98816.38
2018-09-08T18:44:41.381Z,98813.16
2018-09-08T18:46:53.636Z,98817.09
2018-09-08T18:49:05.931Z,98817.58
2018-09-08T18:51:18.175Z,98823.91
2018-09-08T18:53:30.426Z,98819.75
2018-09-08T18:55:42.908Z,98824.51
2018-09-08T18:57:55.187Z,98827.41
2018-09-08T19:00:07.513Z,98826.56
2018-09-08T19:02:19.756Z,98826.28
2018-09-08T19:04:32.108Z,98828.80
2018-09-08T19:06:44.391Z,98828.28
2018-09-08T19:08:56.644Z,98835.34
2018-09-08T19:11:08.982Z,98832.72
2018-09-08T19:13:21.239Z,98838.56
2018-09-08T19:15:33.514Z,98835.81
2018-09-08T19:17:45.811Z,98834.14
2018-09-08T19:20:03.891Z,98836.75
2018-09-08T19:22:16.055Z,98841.27
2018-09-08T19:24:34.031Z,98838.62
2018-09-08T19:26:46.325Z,98844.22
2018-09-08T19:29:04.107Z,98845.05
2018-09-08T19:31:16.435Z,98848.25
2018-09-08T19:33:28.703Z,98847.39
2018-09-08T19:35:41.016Z,98848.44
2018-09-08T19:37:53.254Z,98850.03
2018-09-08T19:40:11.075Z,98847.73
2018-09-08T19:42:23.346Z,98854.66
2018-09-08T19:44:35.607Z,98852.22
2018-09-08T19:46:53.418Z,98853.13
2018-09-08T19:49:05.645Z,98853.47
2018-09-08T19:51:18.015Z,98860.94
2018-09-08T19:53:35.892Z,98853.45
2018-09-08T19:55:48.230Z,98848.36
2018-09-08T19:58:06.228Z,98851.05
2018-09-08T20:00:18.587Z,98852.00
2018-09-08T20:02:30.868Z,98849.98
2018-09-08T20:04:43.070Z,98856.41
2018-09-08T20:06:55.343Z,98858.70
2018-09-08T20:09:07.596Z,98857.58
2018-09-08T20:11:19.960Z,98858.95
2018-09-08T20:13:32.361Z,98855.64
2018-09-08T20:15:44.641Z,98855.38
2018-09-08T20:17:56.993Z,98858.74
2018-09-08T20:20:09.253Z,98851.25
2018-09-08T20:22:21.496Z,98860.47
2018-09-08T20:24:33.783Z,98855.38
2018-09-08T20:26:46.193Z,98861.98
2018-09-08T20:28:58.414Z,98860.10
2018-09-08T20:31:10.559Z,98859.05
2018-09-08T20:33:22.816Z,98858.14
2018-09-08T20:35:35.064Z,98855.59
2018-09-08T20:37:47.383Z,98854.80
2018-09-08T20:39:59.730Z,98850.36
2018-09-08T20:42:11.943Z,98856.84
2018-09-08T20:44:24.197Z,98857.63
2018-09-08T20:46:36.419Z,98854.90
2018-09-08T20:48:48.702Z,98863.34
2018-09-08T20:51:00.969Z,98856.16
2018-09-08T20:53:13.273Z,98861.20
2018-09-08T20:55:25.624Z,98853.16
2018-09-08T20:57:37.878Z,98858.35
2018-09-08T20:59:50.199Z,98853.13
2018-09-08T21:02:02.410Z,98847.97
2018-09-08T21:04:14.859Z,98847.14
2018-09-08T21:06:27.155Z,98842.39
2018-09-08T21:08:39.370Z,98844.01
2018-09-08T21:10:51.590Z,98838.38
2018-09-08T21:13:03.861Z,98841.53
2018-09-08T21:15:16.168Z,98841.00
2018-09-08T21:17:28.371Z,98841.99
2018-09-08T21:19:40.785Z,98844.25
2018-09-08T21:21:52.919Z,98850.67
2018-09-08T21:24:05.211Z,98850.64
2018-09-08T21:26:17.490Z,98846.53
2018-09-08T21:28:29.798Z,98848.63
2018-09-08T21:30:42.168Z,98846.34
2018-09-08T21:32:54.387Z,98853.55
2018-09-08T21:35:06.647Z,98852.24
2018-09-08T21:37:18.880Z,98857.76
2018-09-08T21:39:31.118Z,98857.99
2018-09-08T21:41:43.391Z,98855.30
2018-09-08T21:43:55.593Z,98855.23
2018-09-08T21:46:07.878Z,98859.94
2018-09-08T21:48:20.144Z,98863.42
2018-09-08T21:50:32.595Z,98860.28
2018-09-08T21:52:44.856Z,98861.62
2018-09-08T21:54:57.082Z,98858.57
2018-09-08T21:57:09.365Z,98861.49
2018-09-08T21:59:21.582Z,98871.94
2018-09-08T22:01:33.852Z,98868.98
2018-09-08T22:03:46.121Z,98864.98
2018-09-08T22:05:58.371Z,98867.31
2018-09-08T22:08:10.662Z,98866.75
2018-09-08T22:10:23.247Z,98868.45
2018-09-08T22:12:35.549Z,98871.73
2018-09-08T22:14:47.772Z,98875.56
2018-09-08T22:17:00.034Z,98877.91
2018-09-08T22:19:12.418Z,98879.31
2018-09-08T22:21:24.632Z,98870.00
2018-09-08T22:23:36.858Z,98876.83
2018-09-08T22:25:49.094Z,98884.55
2018-09-08T22:28:01.335Z,98891.19
2018-09-08T22:30:13.563Z,98891.19
2018-09-08T22:32:25.812Z,98889.02
2018-09-08T22:34:38.011Z,98894.53
2018-09-08T22:36:50.255Z,98891.45
2018-09-08T22:39:03.021Z,98890.72
2018-09-08T22:41:15.211Z,98895.66
2018-09-08T22:43:27.474Z,98894.81
2018-09-08T22:45:39.722Z,98889.67
2018-09-08T22:47:51.934Z,98890.25
2018-09-08T22:50:04.466Z,98884.92
2018-09-08T22:52:16.674Z,98895.00
2018-09-08T22:54:28.919Z,98893.69
2018-09-08T22:56:41.147Z,98897.30
2018-09-08T22:58:53.400Z,98888.27
2018-09-08T23:01:05.708Z,98890.22
2018-09-08T23:03:17.932Z,98887.23
2018-09-08T23:05:30.386Z,98890.59
2018-09-08T23:07:42.611Z,98904.65
2018-09-08T23:09:54.830Z,98896.09
2018-09-08T23:12:07.115Z,98897.28
2018-09-08T23:14:19.406Z,98900.00
2018-09-08T23:16:31.652Z,98892.71
2018-09-08T23:18:43.893Z,98888.45
2018-09-08T23:20:56.108Z,98885.92
2018-09-08T23:23:08.338Z,98886.14
2018-09-08T23:25:20.567Z,98884.73
2018-09-08T23:27:32.853Z,98880.64
2018-09-08T23:29:45.103Z,98889.58
2018-09-08T23:31:57.300Z,98886.80
2018-09-08T23:34:09.547Z,98891.08
2018-09-08T23:36:21.809Z,98897.67
2018-09-08T23:38:34.050Z,98893.09
2018-09-08T23:40:46.288Z,98894.41
2018-09-08T23:42:58.547Z,98890.49
2018-09-08T23:45:10.794Z,98894.88
2018-09-08T23:47:22.999Z,98896.28
2018-09-08T23:49:35.219Z,98892.73
2018-09-08T23:51:47.434Z,98888.93
2018-09-08T23:53:59.630Z,98897.66
2018-09-08T23:56:11.886Z,98893.20
2018-09-08T23:58:24.105Z,98899.82
